OTP weather

Henri Coandă International Airport
Bucharest, Bucureşti, Romania

Public forecast

Using degrees Celsius for public forecast. Weather courtesy of forecast.io.

METAR (pilot weather report)

Retrieved 2018/12/11 18:30 UTC (0 seconds ago):

LROP 111830Z 03005KT 5000 -RASN BR SCT010 BKN035 01/00 Q1015 R88/29//95 NOSIG

TAF (pilot weather forecast)

Retrieved 2018/12/11 18:33 UTC (0 seconds ago):

TAF LROP 111700Z 1118/1218 24006KT 3000 -RASN BR BKN010 OVC030 PROB40 TEMPO 1118/1120 -FZRA BECMG 1120/1122 1500 -SN BR BKN005 OVC020 PROB30 TEMPO 1200/1205 -FZRA BECMG 1207/1209 6000 NSW BKN020